Williamsville, Michigan
Current Conditions -  °F | °C
As of 2:14 AM on Friday 31 Oct 2014 (Local Time) from KOZW Reporting Station
Overcast Overcast  
Wind Chill: 43°   Ceiling: 3400
Heat Index: 43°   Visibility: 10mi
Dew Point: 36°   Wind: 0mph
Humidity: 77%   Direction: NA
Pressure: 29.96"   Gusts: NA
Location:  42.4581°N, 84.074°W
Report Text: KOZW 310614Z AUTO 00000KT 10SM SCT027 BKN034 OVC100 06/02 A2996 RMK AO2 T00610023
Loading
Personal Weather Stations






























Interactive Weather Map
Tropical Storm Tracking
New forecast layout! Learn more

10-Day Weather Forecast

Advertisements
Track Severe Weather on mobile